Time;durP1;ratioP1;P1;durP2;ratioP2;P2;SDS_P1;SDS_P2;PMS_P1;PMS_P2;Temp;Humidity;BMP_temperature;BMP_pressure;BME280_temperature;BME280_humidity;BME280_pressure;Samples;Min_cycle;Max_cycle;Signal;HPM_P1;HPM_P2
2022/10/27 06:55:16;;;;;;;;;4.25;4.25;;;;;15.84;89.55;101506.59;5155127;23;50159;-71
2022/10/27 06:57:42;;;;;;;;;7.00;6.00;;;;;15.58;89.86;101449.78;4925332;28;50019;-74
2022/10/27 07:00:10;;;;;;;;;5.00;5.00;;;;;16.25;90.21;101569.69;4940857;28;50095;-72
2022/10/27 07:02:35;;;;;;;;;6.75;6.75;;;;;15.76;89.91;101491.50;4951322;28;49845;-71
2022/10/27 07:05:01;;;;;;;;;7.75;7.00;;;;;16.31;89.38;101575.06;4934826;28;51691;-71
2022/10/27 07:07:27;;;;;;;;;5.75;5.75;;;;;16.36;88.99;101598.97;4951303;28;49800;-70
2022/10/27 07:09:52;;;;;;;;;7.25;7.25;;;;;16.38;89.14;101637.84;4960793;28;49996;-71
2022/10/27 07:12:17;;;;;;;;;5.00;5.00;;;;;16.13;90.06;101564.28;4970486;28;56766;-71
2022/10/27 07:14:43;;;;;;;;;6.50;6.00;;;;;15.94;88.80;101528.75;4965273;28;49937;-72
2022/10/27 07:17:08;;;;;;;;;8.50;7.00;;;;;16.11;87.96;101550.09;4959670;28;49846;-80
2022/10/27 07:19:34;;;;;;;;;6.75;6.50;;;;;16.61;88.71;101646.06;4952168;28;49920;-77
2022/10/27 07:21:59;;;;;;;;;7.25;6.00;;;;;16.53;88.22;101589.41;4951971;28;50176;-71
2022/10/27 07:24:32;;;;;;;;;5.00;5.00;;;;;16.64;87.27;101611.59;4953504;28;49933;-77
2022/10/27 07:26:58;;;;;;;;;5.50;5.50;;;;;15.61;86.82;101436.59;4937168;28;49927;-82
2022/10/27 07:29:23;;;;;;;;;7.00;6.00;;;;;16.73;87.20;101613.50;4952960;28;49671;-81
2022/10/27 07:31:48;;;;;;;;;5.00;5.00;;;;;16.87;86.64;101635.69;4958159;28;49982;-76
2022/10/27 07:34:14;;;;;;;;;7.50;7.25;;;;;15.76;86.05;101443.84;4971745;28;49748;-76
2022/10/27 07:36:39;;;;;;;;;6.75;6.75;;;;;16.99;85.71;101611.97;4971124;28;49788;-76
2022/10/27 07:39:05;;;;;;;;;7.00;4.75;;;;;16.76;85.22;101560.47;4973227;28;49934;-77
2022/10/27 07:41:31;;;;;;;;;5.50;5.25;;;;;17.03;84.66;101597.84;4968430;28;51011;-77
2022/10/27 07:43:56;;;;;;;;;3.75;3.75;;;;;17.44;84.54;101645.88;4956608;28;49761;-76
2022/10/27 07:46:22;;;;;;;;;5.75;5.25;;;;;17.56;83.94;101638.88;4949678;28;49782;-76
2022/10/27 07:48:47;;;;;;;;;5.75;5.75;;;;;17.15;83.52;101578.47;4950644;28;49776;-76
2022/10/27 07:51:12;;;;;;;;;6.50;6.50;;;;;16.31;82.14;101398.44;4950050;28;50520;-76
2022/10/27 07:53:38;;;;;;;;;7.00;5.00;;;;;17.82;81.79;101644.38;4949496;28;49928;-77
2022/10/27 07:56:03;;;;;;;;;7.75;6.50;;;;;17.25;81.94;101568.78;4954219;28;49639;-76
2022/10/27 07:58:29;;;;;;;;;3.25;3.25;;;;;17.02;82.11;101532.41;4954662;28;50478;-76
2022/10/27 08:00:56;;;;;;;;;4.25;4.25;;;;;17.94;81.33;101668.31;4954152;28;50803;-77
2022/10/27 08:03:24;;;;;;;;;6.00;6.00;;;;;16.88;81.22;101515.50;4954349;28;49653;-77
2022/10/27 08:05:51;;;;;;;;;9.00;6.00;;;;;18.02;81.03;101654.19;4965764;28;49839;-77
2022/10/27 08:08:17;;;;;;;;;6.75;5.75;;;;;16.58;80.23;101396.84;4957465;28;49814;-78
2022/10/27 08:10:44;;;;;;;;;4.00;4.00;;;;;17.31;80.17;101526.38;4936568;28;51209;-76
2022/10/27 08:13:10;;;;;;;;;4.00;4.00;;;;;16.81;80.19;101436.78;4960839;28;49582;-76
2022/10/27 08:15:37;;;;;;;;;4.00;4.00;;;;;18.05;80.03;101679.00;4940335;28;49625;-79
2022/10/27 08:18:04;;;;;;;;;5.50;5.50;;;;;17.71;80.23;101565.53;4933765;28;50354;-78
2022/10/27 08:20:32;;;;;;;;;5.50;4.25;;;;;18.21;79.75;101646.31;4958057;28;50720;-78
2022/10/27 08:23:00;;;;;;;;;8.75;7.75;;;;;16.56;79.05;101349.13;4955191;28;49879;-77
2022/10/27 08:25:27;;;;;;;;;6.25;6.25;;;;;18.27;79.31;101687.09;4954972;28;49787;-78
2022/10/27 08:27:52;;;;;;;;;6.25;6.25;;;;;18.28;79.39;101659.63;4937770;28;50026;-80
2022/10/27 08:30:19;;;;;;;;;6.00;6.00;;;;;17.36;79.43;101482.16;4961975;28;49791;-72
2022/10/27 08:32:44;;;;;;;;;9.75;8.25;;;;;17.49;78.48;101510.53;4972199;28;49612;-76
2022/10/27 08:35:09;;;;;;;;;10.50;6.75;;;;;18.03;78.74;101633.84;4961858;28;49763;-77
2022/10/27 08:37:35;;;;;;;;;5.50;5.50;;;;;16.78;78.64;101402.28;4956379;28;49742;-75
2022/10/27 08:40:00;;;;;;;;;8.25;7.25;;;;;18.34;78.61;101665.88;4938859;28;56292;-75
2022/10/27 08:42:36;;;;;;;;;7.50;5.50;;;;;18.37;78.58;101665.88;4941127;28;49910;-77
2022/10/27 08:45:06;;;;;;;;;7.50;6.00;;;;;18.38;78.19;101667.63;4955081;28;49876;-76
2022/10/27 08:47:32;;;;;;;;;6.50;5.50;;;;;18.37;78.08;101680.03;4973277;28;50685;-79
2022/10/27 08:50:15;;;;;;;;;4.00;4.00;;;;;17.78;77.98;101574.44;4973180;28;50324;-79
2022/10/27 08:52:50;;;;;;;;;7.25;7.25;;;;;18.13;78.03;101629.44;4975084;28;49899;-77
2022/10/27 08:55:21;;;;;;;;;8.00;6.00;;;;;18.46;77.49;101697.78;4954301;28;49781;-75
2022/10/27 08:57:54;;;;;;;;;8.00;6.75;;;;;18.26;77.48;101658.75;4956507;28;50003;-76
2022/10/27 09:00:19;;;;;;;;;6.75;6.00;;;;;17.17;77.27;101460.84;4970453;28;49797;-75
2022/10/27 09:03:12;;;;;;;;;7.25;5.75;;;;;17.51;76.76;101524.72;4959349;28;49718;-74
2022/10/27 09:06:15;;;;;;;;;5.25;5.25;;;;;17.62;76.30;101536.25;4943328;28;50026;-73
2022/10/27 09:08:43;;;;;;;;;7.25;7.00;;;;;18.77;76.49;101678.41;4967165;28;50098;-73
2022/10/27 09:11:28;;;;;;;;;6.50;6.00;;;;;18.86;75.87;101677.53;4953649;28;50498;-74
2022/10/27 09:14:14;;;;;;;;;8.00;5.00;;;;;19.00;75.21;101674.88;4952849;28;49931;-73
2022/10/27 09:17:07;;;;;;;;;8.25;6.00;;;;;18.23;74.51;101540.88;4953388;28;49690;-77
2022/10/27 09:19:53;;;;;;;;;9.50;6.25;;;;;18.66;74.37;101605.69;4950402;28;49812;-75
2022/10/27 09:22:27;;;;;;;;;9.00;5.75;;;;;19.23;74.43;101670.44;4953806;28;50639;-76
2022/10/27 09:24:59;;;;;;;;;5.00;5.00;;;;;17.82;74.06;101430.13;4953220;28;49675;-74
2022/10/27 09:27:24;;;;;;;;;5.00;5.00;;;;;17.99;73.75;101462.91;4939420;28;49779;-76
2022/10/27 09:29:52;;;;;;;;;6.25;6.25;;;;;18.52;73.56;101539.16;4971001;28;49653;-75
2022/10/27 09:32:28;;;;;;;;;7.00;6.00;;;;;19.21;73.02;101639.41;4969236;28;49736;-76
2022/10/27 09:35:08;;;;;;;;;8.25;7.50;;;;;18.95;73.16;101613.69;4957313;28;50045;-76
2022/10/27 09:37:40;;;;;;;;;5.75;5.75;;;;;19.61;72.94;101698.84;4950106;28;49799;-75
2022/10/27 09:40:13;;;;;;;;;5.25;5.25;;;;;18.61;72.45;101524.97;4952642;28;49708;-74
2022/10/27 09:42:39;;;;;;;;;8.75;6.75;;;;;18.72;71.56;101557.84;4952344;28;49870;-75
2022/10/27 09:45:13;;;;;;;;;5.25;5.25;;;;;18.54;71.83;101507.25;4952527;28;49714;-74
2022/10/27 09:47:41;;;;;;;;;8.50;8.25;;;;;19.77;72.00;101689.91;4954521;28;50143;-76
2022/10/27 09:50:36;;;;;;;;;7.25;7.00;;;;;18.37;71.38;101419.53;4935290;28;49694;-76
2022/10/27 09:53:04;;;;;;;;;11.75;7.50;;;;;19.74;71.97;101639.31;4970884;28;49678;-76
2022/10/27 09:55:50;;;;;;;;;7.50;5.75;;;;;20.07;71.63;101670.28;4972502;28;49786;-74
2022/10/27 09:58:17;;;;;;;;;8.00;6.50;;;;;19.44;71.50;101550.59;4962175;28;49840;-75
2022/10/27 10:00:43;;;;;;;;;10.75;7.50;;;;;20.19;71.32;101670.25;4969865;28;49786;-73
2022/10/27 10:03:20;;;;;;;;;8.00;6.50;;;;;20.23;70.74;101660.47;4956635;28;50556;-72
2022/10/27 10:05:46;;;;;;;;;7.75;6.75;;;;;19.39;70.06;101503.56;4964644;28;50128;-73
2022/10/27 10:08:34;;;;;;;;;10.00;8.25;;;;;20.32;70.50;101648.88;4965004;28;49834;-73
2022/10/27 10:11:05;;;;;;;;;12.25;10.75;;;;;20.51;70.47;101664.78;4951742;28;49602;-73
2022/10/27 10:13:33;;;;;;;;;7.75;6.50;;;;;20.64;69.75;101676.25;4934481;28;50710;-72
2022/10/27 10:16:08;;;;;;;;;4.00;3.75;;;;;20.29;69.13;101613.31;4951697;28;49711;-74
2022/10/27 10:18:34;;;;;;;;;6.75;6.25;;;;;20.71;69.26;101677.13;4951584;28;50017;-72
2022/10/27 10:21:09;;;;;;;;;9.00;8.25;;;;;20.38;68.90;101593.72;4952571;28;49964;-71
2022/10/27 10:23:46;;;;;;;;;3.75;3.75;;;;;19.98;69.20;101514.00;4952251;28;51072;-67
2022/10/27 10:26:19;;;;;;;;;8.75;8.75;;;;;20.96;68.72;101668.06;4952300;28;49728;-74
2022/10/27 10:28:46;;;;;;;;;6.50;5.75;;;;;21.04;68.96;101674.22;4953592;28;50210;-71
2022/10/27 10:31:19;;;;;;;;;7.50;7.50;;;;;20.30;68.46;101536.88;4956583;28;49957;-74
2022/10/27 10:33:46;;;;;;;;;9.00;8.25;;;;;20.40;68.12;101575.91;4951799;28;49887;-74
2022/10/27 10:36:27;;;;;;;;;8.25;6.50;;;;;20.10;67.78;101496.16;4952282;28;49779;-73
2022/10/27 10:38:58;;;;;;;;;7.00;5.25;;;;;20.82;67.13;101612.09;4936232;28;49557;-75
2022/10/27 10:41:25;;;;;;;;;6.75;6.75;;;;;20.37;67.75;101556.41;4952539;28;49966;-76
2022/10/27 10:44:08;;;;;;;;;10.75;7.25;;;;;21.27;67.41;101700.75;4951706;28;50329;-78
2022/10/27 10:46:34;;;;;;;;;10.50;9.00;;;;;21.01;67.28;101641.31;4934464;28;49855;-74
2022/10/27 10:49:01;;;;;;;;;9.25;6.50;;;;;20.38;67.10;101535.06;4951612;28;49748;-73
2022/10/27 10:51:29;;;;;;;;;8.00;8.00;;;;;20.46;67.04;101543.00;4952019;28;49634;-78
2022/10/27 10:54:06;;;;;;;;;6.75;6.75;;;;;21.24;67.10;101673.16;4933759;28;51820;-75
2022/10/27 10:56:36;;;;;;;;;8.50;7.25;;;;;21.13;66.86;101667.88;4951861;28;49729;-82
2022/10/27 10:59:17;;;;;;;;;6.25;6.00;;;;;21.18;66.72;101691.91;4951631;28;49696;-76
2022/10/27 11:01:55;;;;;;;;;8.25;7.00;;;;;21.18;66.81;101702.59;4934520;28;49925;-78
2022/10/27 11:04:26;;;;;;;;;7.75;5.50;;;;;19.68;66.96;101412.91;4951572;28;50821;-78
2022/10/27 11:07:19;;;;;;;;;9.00;9.00;;;;;21.39;66.75;101671.25;4934248;28;50142;-79
2022/10/27 11:10:04;;;;;;;;;9.75;8.00;;;;;20.96;66.31;101620.00;4934128;28;49950;-77
2022/10/27 11:12:34;;;;;;;;;9.50;8.75;;;;;21.42;66.60;101692.63;4951815;28;49652;-77
2022/10/27 11:15:04;;;;;;;;;12.50;12.00;;;;;19.99;66.30;101441.13;4951654;28;49841;-76
2022/10/27 11:17:33;;;;;;;;;6.00;5.75;;;;;21.35;66.35;101669.53;4962210;28;49786;-77
2022/10/27 11:19:59;;;;;;;;;8.50;8.50;;;;;20.30;66.28;101491.56;4976972;28;49614;-81
2022/10/27 11:22:26;;;;;;;;;8.00;6.75;;;;;20.36;66.62;101485.28;4971132;28;49857;-76
2022/10/27 11:24:57;;;;;;;;;10.00;8.50;;;;;20.36;66.28;101485.28;4970949;28;49985;-77
2022/10/27 11:27:29;;;;;;;;;7.25;7.25;;;;;20.53;66.20;101494.94;4971368;28;49711;-77
2022/10/27 11:30:03;;;;;;;;;9.75;8.75;;;;;21.28;66.99;101641.09;4974050;28;49790;-77
2022/10/27 11:32:50;;;;;;;;;9.25;7.50;;;;;20.43;67.19;101479.03;4956967;28;50030;-76
2022/10/27 11:35:36;;;;;;;;;15.50;9.75;;;;;20.62;66.19;101520.66;4974915;28;49857;-78
2022/10/27 11:38:14;;;;;;;;;9.25;9.25;;;;;21.55;66.11;101639.94;4956569;28;50235;-78
2022/10/27 11:41:10;;;;;;;;;8.75;8.25;;;;;21.55;66.39;101650.63;4961309;28;49813;-77
2022/10/27 11:43:51;;;;;;;;;8.50;6.75;;;;;21.56;66.58;101647.06;4959720;28;49758;-76
2022/10/27 11:46:25;;;;;;;;;10.00;8.75;;;;;20.17;66.83;101399.22;4974363;28;49788;-76
2022/10/27 11:48:57;;;;;;;;;10.00;8.25;;;;;21.65;67.20;101643.41;4965422;28;49750;-77
2022/10/27 11:51:30;;;;;;;;;11.75;9.75;;;;;21.67;66.63;101641.59;4957843;28;49686;-80
2022/10/27 11:53:56;;;;;;;;;8.75;8.25;;;;;20.61;66.77;101457.53;4958602;28;49979;-77
2022/10/27 11:56:30;;;;;;;;;7.50;7.50;;;;;21.78;66.44;101633.44;4963022;28;50744;-74
2022/10/27 11:59:17;;;;;;;;;12.75;10.75;;;;;21.79;66.32;101635.22;4959343;28;49423;-81
2022/10/27 12:02:07;;;;;;;;;8.00;6.00;;;;;21.26;66.42;101525.41;4952762;28;49573;-73
2022/10/27 12:04:58;;;;;;;;;8.25;4.75;;;;;21.86;66.75;101621.78;4955839;28;49772;-75
2022/10/27 12:07:49;;;;;;;;;8.00;5.75;;;;;21.84;65.79;101614.69;4954329;28;49976;-80
2022/10/27 12:10:38;;;;;;;;;8.50;7.50;;;;;20.77;66.30;101453.81;4972501;28;49747;-77
2022/10/27 12:13:36;;;;;;;;;6.25;6.25;;;;;21.54;66.60;101584.75;4956492;28;49814;-76
2022/10/27 12:16:15;;;;;;;;;7.75;5.75;;;;;21.70;66.74;101593.44;4929605;28;49697;-79
2022/10/27 12:18:40;;;;;;;;;14.25;8.00;;;;;21.93;67.32;101620.81;4956779;28;49895;-82
2022/10/27 12:21:34;;;;;;;;;7.00;6.75;;;;;21.20;66.28;101500.50;4975777;28;49964;-80
2022/10/27 12:24:09;;;;;;;;;5.75;5.75;;;;;21.00;66.39;101448.22;4956225;28;49684;-81
2022/10/27 12:26:43;;;;;;;;;5.25;5.25;;;;;21.51;66.17;101535.78;4959691;28;49810;-79
2022/10/27 12:29:11;;;;;;;;;7.75;7.00;;;;;22.03;66.05;101616.22;4977368;28;50131;-80
2022/10/27 12:31:51;;;;;;;;;6.00;6.00;;;;;21.49;65.56;101517.13;4968446;28;50017;-87
2022/10/27 12:34:21;;;;;;;;;6.50;5.00;;;;;20.43;65.76;101340.34;4966484;28;49870;-81
2022/10/27 12:37:17;;;;;;;;;8.00;8.00;;;;;21.43;66.38;101515.41;4962669;28;49448;-89
2022/10/27 12:39:57;;;;;;;;;7.25;6.00;;;;;22.11;65.81;101605.47;4962871;28;49998;-78
2022/10/27 12:42:48;;;;;;;;;8.50;5.75;;;;;21.91;65.11;101561.13;4976436;28;49731;-83
2022/10/27 12:45:40;;;;;;;;;6.50;5.75;;;;;22.11;64.95;101601.00;4969287;28;49848;-81
2022/10/27 12:48:24;;;;;;;;;6.50;6.25;;;;;22.19;64.99;101596.41;4956744;28;49639;-79
2022/10/27 12:50:52;;;;;;;;;9.75;6.50;;;;;22.24;64.95;101599.91;4959862;28;49845;-76
2022/10/27 12:53:44;;;;;;;;;6.75;6.50;;;;;22.26;64.68;101602.56;4942469;28;49745;-78
2022/10/27 12:56:43;;;;;;;;;11.25;8.75;;;;;20.78;64.05;101340.84;4960829;28;50003;-80
2022/10/27 12:59:47;;;;;;;;;10.00;7.25;;;;;21.55;64.09;101489.44;4942964;28;49827;-80
2022/10/27 13:02:12;;;;;;;;;9.50;7.75;;;;;22.38;63.47;101591.69;4966487;28;50701;-78
2022/10/27 13:05:13;;;;;;;;;6.00;6.00;;;;;21.91;63.89;101502.31;4975880;28;49847;-79
2022/10/27 13:08:03;;;;;;;;;7.50;5.50;;;;;22.47;63.89;101609.38;4889594;28;50151;-79
2022/10/27 13:11:10;;;;;;;;;7.50;6.00;;;;;22.49;63.71;101588.88;4953982;28;49815;-80
2022/10/27 13:13:54;;;;;;;;;7.25;6.00;;;;;22.52;63.68;101576.31;4875326;29;50407;-80
2022/10/27 13:16:32;;;;;;;;;7.00;6.00;;;;;21.01;63.62;101327.22;4931340;28;49978;-79
2022/10/27 13:19:27;;;;;;;;;8.75;5.75;;;;;22.54;63.57;101562.91;4948791;28;49723;-80
2022/10/27 13:22:16;;;;;;;;;7.75;6.75;;;;;21.51;63.61;101376.38;4936300;28;49926;-82
2022/10/27 13:25:11;;;;;;;;;9.00;7.00;;;;;22.04;63.70;101468.25;4935649;28;51847;-84
2022/10/27 13:28:15;;;;;;;;;7.50;6.50;;;;;22.61;63.31;101561.91;4936452;28;49984;-78
2022/10/27 13:30:43;;;;;;;;;8.50;6.50;;;;;22.60;63.03;101551.22;4947780;28;49568;-82
2022/10/27 13:33:31;;;;;;;;;5.50;5.50;;;;;22.74;62.91;101565.25;4968698;28;49601;-77
2022/10/27 13:36:21;;;;;;;;;7.00;5.75;;;;;22.76;63.06;101552.72;4965306;28;50928;-83
2022/10/27 13:38:48;;;;;;;;;5.75;4.75;;;;;21.67;62.84;101375.28;4971991;28;50128;-84
2022/10/27 13:41:55;;;;;;;;;8.50;6.50;;;;;22.34;62.65;101509.72;4959266;28;49811;-75
2022/10/27 13:44:36;;;;;;;;;7.00;6.00;;;;;22.81;62.59;101545.50;4880751;29;50192;-74
2022/10/27 13:47:02;;;;;;;;;7.25;7.25;;;;;22.83;61.93;101536.53;4948190;28;50599;-83
2022/10/27 13:49:39;;;;;;;;;7.50;7.50;;;;;22.85;62.84;101550.81;4961828;28;49636;-81
2022/10/27 13:52:13;;;;;;;;;8.25;6.50;;;;;22.88;62.70;101541.88;4956866;28;49590;-75
2022/10/27 13:54:52;;;;;;;;;7.75;6.00;;;;;22.90;62.90;101547.19;4972282;28;49716;-73
2022/10/27 13:57:44;;;;;;;;;9.25;8.25;;;;;22.91;62.41;101543.59;4968435;28;50360;-75
2022/10/27 14:00:15;;;;;;;;;5.25;5.00;;;;;22.04;62.45;101396.06;4953287;28;49936;-74
2022/10/27 14:03:05;;;;;;;;;9.00;9.00;;;;;22.26;62.70;101445.63;4959168;28;50082;-78
2022/10/27 14:05:42;;;;;;;;;7.00;7.00;;;;;22.18;62.82;101425.28;4974609;28;50103;-78
2022/10/27 14:08:29;;;;;;;;;7.00;6.75;;;;;22.06;62.37;101382.66;4953004;28;52553;-76
2022/10/27 14:10:58;;;;;;;;;6.50;5.75;;;;;22.15;62.37;101428.91;4961582;28;49799;-75
2022/10/27 14:13:37;;;;;;;;;15.00;7.25;;;;;22.57;62.62;101478.09;4975510;28;49676;-77
2022/10/27 14:16:03;;;;;;;;;10.75;7.25;;;;;21.71;61.47;101358.31;4954383;28;49935;-76
2022/10/27 14:18:37;;;;;;;;;6.25;6.25;;;;;22.79;61.79;101509.88;4963932;28;49949;-77
2022/10/27 14:21:34;;;;;;;;;6.25;5.25;;;;;21.94;62.06;101373.94;4956179;28;49660;-75
2022/10/27 14:24:14;;;;;;;;;7.50;7.00;;;;;21.34;62.72;101277.84;4936793;28;49981;-80
2022/10/27 14:26:39;;;;;;;;;10.75;7.75;;;;;22.79;62.46;101529.47;4935507;28;50025;-75
2022/10/27 14:29:16;;;;;;;;;6.25;6.25;;;;;22.33;62.46;101467.84;4937559;28;52487;-75
2022/10/27 14:31:42;;;;;;;;;9.25;6.00;;;;;21.64;62.24;101347.72;4954673;28;49751;-77
2022/10/27 14:34:20;;;;;;;;;7.75;6.75;;;;;22.68;63.17;101534.16;4950885;28;65633;-78
2022/10/27 14:36:45;;;;;;;;;4.75;4.75;;;;;22.37;62.94;101477.56;4952124;28;49791;-75
2022/10/27 14:39:27;;;;;;;;;5.50;4.50;;;;;22.64;63.03;101519.03;4934770;28;51269;-79
2022/10/27 14:42:01;;;;;;;;;6.50;6.50;;;;;22.64;62.90;101504.78;4934582;28;50016;-79
2022/10/27 14:44:32;;;;;;;;;6.50;5.50;;;;;22.20;63.27;101435.06;4951991;28;49942;-80
2022/10/27 14:47:08;;;;;;;;;5.00;5.00;;;;;22.77;62.94;101533.06;4952904;28;49609;-80
2022/10/27 14:49:55;;;;;;;;;7.75;7.25;;;;;22.85;63.09;101521.34;4953010;28;52163;-78
2022/10/27 14:52:23;;;;;;;;;3.75;3.75;;;;;22.17;62.91;101391.44;4975199;28;49817;-78
2022/10/27 14:54:54;;;;;;;;;6.00;5.00;;;;;22.26;62.73;101396.63;4956360;28;49836;-79
2022/10/27 14:57:27;;;;;;;;;7.50;7.00;;;;;22.33;62.45;101400.09;4953415;28;49844;-73
2022/10/27 14:59:53;;;;;;;;;6.25;4.50;;;;;22.58;62.22;101449.53;4970983;28;50769;-74
2022/10/27 15:02:18;;;;;;;;;9.50;8.50;;;;;22.92;62.32;101500.72;4971235;28;49755;-74
2022/10/27 15:04:44;;;;;;;;;6.00;6.00;;;;;23.11;62.14;101526.25;4971762;28;50068;-75
2022/10/27 15:07:16;;;;;;;;;7.75;5.75;;;;;21.98;62.22;101324.88;4972746;28;49946;-77
2022/10/27 15:09:44;;;;;;;;;6.00;6.00;;;;;22.37;62.03;101399.09;4956830;28;50430;-76
2022/10/27 15:12:26;;;;;;;;;8.50;6.00;;;;;22.79;62.51;101499.16;4970413;28;49541;-77
2022/10/27 15:14:54;;;;;;;;;8.50;7.50;;;;;23.21;62.28;101567.13;4970902;28;49909;-77
2022/10/27 15:17:31;;;;;;;;;7.25;7.25;;;;;21.92;62.16;101346.38;4971289;28;49959;-77
2022/10/27 15:19:59;;;;;;;;;4.75;4.75;;;;;22.98;62.37;101508.66;4970671;28;50318;-76
2022/10/27 15:22:25;;;;;;;;;6.75;6.75;;;;;22.28;62.29;101389.44;4970544;28;49903;-76
2022/10/27 15:24:52;;;;;;;;;7.75;7.75;;;;;22.88;62.56;101492.78;4952925;28;50006;-76
2022/10/27 15:27:19;;;;;;;;;12.00;7.25;;;;;22.00;63.08;101384.56;4972632;28;49789;-77
2022/10/27 15:29:48;;;;;;;;;8.25;7.00;;;;;22.12;62.42;101378.16;4973807;28;49933;-74
2022/10/27 15:32:31;;;;;;;;;6.50;6.50;;;;;22.52;63.34;101455.03;4970842;28;49868;-75
2022/10/27 15:34:57;;;;;;;;;12.00;7.75;;;;;21.90;62.63;101368.66;4960254;28;49986;-75
2022/10/27 15:37:22;;;;;;;;;7.25;7.00;;;;;22.96;63.14;101544.38;4951657;28;49818;-73
2022/10/27 15:39:48;;;;;;;;;5.00;5.00;;;;;22.89;62.65;101564.16;4951017;28;49799;-74
2022/10/27 15:42:17;;;;;;;;;7.75;6.75;;;;;22.34;63.23;101466.03;4960310;28;49756;-73
2022/10/27 15:44:42;;;;;;;;;5.00;5.00;;;;;22.78;63.61;101532.19;4970471;28;49632;-73
2022/10/27 15:48:00;;;;;;;;;6.50;6.50;;;;;22.75;63.58;101534.91;4966656;28;49990;-72
2022/10/27 15:50:38;;;;;;;;;13.75;11.50;;;;;22.68;64.10;101547.53;4908343;28;49990;-71
2022/10/27 15:53:16;;;;;;;;;9.00;7.25;;;;;22.60;64.35;101536.06;4957810;28;49743;-72
2022/10/27 15:55:44;;;;;;;;;6.75;6.75;;;;;22.59;63.94;101550.34;4950924;28;50616;-75
2022/10/27 15:58:37;;;;;;;;;9.75;9.75;;;;;22.55;64.46;101552.19;4953935;28;49753;-74
2022/10/27 16:01:29;;;;;;;;;10.50;8.75;;;;;22.30;64.36;101510.69;4957283;28;51203;-75
2022/10/27 16:04:00;;;;;;;;;6.50;5.75;;;;;22.20;64.38;101501.03;4956598;28;49476;-75
2022/10/27 16:06:28;;;;;;;;;9.25;6.25;;;;;22.30;64.58;101528.53;4946708;28;50119;-74
2022/10/27 16:09:04;;;;;;;;;5.00;3.75;;;;;21.99;64.85;101472.78;4943511;28;50108;-74
2022/10/27 16:11:47;;;;;;;;;7.50;6.00;;;;;22.24;65.19;101524.16;4954444;28;49945;-76
2022/10/27 16:14:14;;;;;;;;;5.75;3.75;;;;;22.22;65.21;101526.84;4951392;28;59612;-72
2022/10/27 16:16:40;;;;;;;;;7.75;7.75;;;;;22.19;65.59;101531.34;4893612;28;51035;-71
2022/10/27 16:19:09;;;;;;;;;9.50;8.00;;;;;21.72;65.66;101450.03;4919281;28;49998;-70
2022/10/27 16:21:35;;;;;;;;;7.00;7.00;;;;;22.07;65.85;101519.03;4951883;28;50635;-72
2022/10/27 16:24:20;;;;;;;;;11.25;10.00;;;;;22.07;66.49;101532.41;4951810;28;55203;-71
2022/10/27 16:26:47;;;;;;;;;7.75;7.75;;;;;22.05;66.36;101520.81;4966286;28;49608;-69
2022/10/27 16:29:19;;;;;;;;;6.50;5.50;;;;;21.96;66.84;101527.19;4969012;28;49842;-72
2022/10/27 16:31:46;;;;;;;;;9.00;9.00;;;;;21.98;67.07;101529.84;4963843;28;49821;-70
2022/10/27 16:34:20;;;;;;;;;10.25;7.50;;;;;21.84;67.10;101524.69;4954496;28;49743;-72
2022/10/27 16:36:47;;;;;;;;;5.75;5.75;;;;;21.87;67.58;101518.41;4965995;28;49664;-70
2022/10/27 16:39:14;;;;;;;;;9.25;7.25;;;;;21.81;67.25;101500.69;4961874;28;49955;-69
2022/10/27 16:41:39;;;;;;;;;10.25;8.00;;;;;21.74;67.84;101511.47;4953710;28;49815;-73
2022/10/27 16:44:05;;;;;;;;;8.00;6.75;;;;;21.72;68.08;101516.84;4941515;28;49629;-69
2022/10/27 16:46:30;;;;;;;;;10.00;7.00;;;;;21.74;68.11;101519.50;4953867;28;61410;-73
2022/10/27 16:48:55;;;;;;;;;8.00;7.00;;;;;21.69;68.52;101512.41;4955488;28;49925;-70
2022/10/27 16:51:20;;;;;;;;;8.00;8.00;;;;;21.69;68.75;101517.75;4953305;28;57581;-73
2022/10/27 16:53:47;;;;;;;;;9.00;7.75;;;;;21.49;69.22;101490.41;4953020;28;55628;-72
2022/10/27 16:56:12;;;;;;;;;10.25;8.00;;;;;21.54;69.14;101507.28;4953092;28;50022;-73
2022/10/27 16:58:44;;;;;;;;;7.25;6.75;;;;;21.41;69.39;101490.50;4957470;28;49262;-73
2022/10/27 17:01:18;;;;;;;;;7.75;7.00;;;;;21.46;69.51;101506.47;4978992;28;49846;-73
2022/10/27 17:03:44;;;;;;;;;13.75;12.50;;;;;21.52;69.90;101533.13;4961267;28;50106;-72
2022/10/27 17:06:10;;;;;;;;;9.75;8.50;;;;;21.51;69.94;101525.09;4954054;28;49845;-72
2022/10/27 17:08:37;;;;;;;;;8.75;8.75;;;;;21.43;70.28;101509.19;4953224;28;50299;-70
2022/10/27 17:11:07;;;;;;;;;9.25;9.25;;;;;21.49;70.21;101527.81;4953717;28;49792;-75
2022/10/27 17:13:33;;;;;;;;;6.00;6.00;;;;;21.40;70.52;101506.53;4954197;28;49977;-74
2022/10/27 17:16:04;;;;;;;;;7.50;6.50;;;;;21.45;70.54;101519.84;4938656;28;49853;-74
2022/10/27 17:18:30;;;;;;;;;5.50;5.50;;;;;21.32;70.69;101497.72;4953336;28;49879;-71
2022/10/27 17:20:56;;;;;;;;;9.00;8.50;;;;;21.25;71.03;101491.56;4957047;28;50080;-73
2022/10/27 17:23:22;;;;;;;;;8.00;7.25;;;;;21.23;70.85;101492.47;4955416;28;49867;-74
2022/10/27 17:25:47;;;;;;;;;9.50;7.25;;;;;21.29;71.00;101508.47;4962399;28;49904;-72
2022/10/27 17:28:12;;;;;;;;;7.25;6.00;;;;;21.17;71.42;101500.56;4953419;28;52765;-72
2022/10/27 17:30:37;;;;;;;;;9.75;8.25;;;;;21.35;71.34;101527.97;4964512;28;75305;-72
2022/10/27 17:33:03;;;;;;;;;10.25;9.50;;;;;21.24;71.47;101507.59;4960593;28;55228;-72
2022/10/27 17:35:28;;;;;;;;;10.75;8.75;;;;;21.07;71.45;101473.09;4974584;28;60471;-73
2022/10/27 17:37:53;;;;;;;;;8.50;8.50;;;;;21.19;71.52;101501.41;4967013;28;54138;-75
2022/10/27 17:40:19;;;;;;;;;7.00;6.00;;;;;21.29;71.83;101519.13;4972256;28;70495;-72
2022/10/27 17:42:44;;;;;;;;;9.00;6.00;;;;;21.03;71.75;101477.56;4967055;28;49895;-72
2022/10/27 17:45:09;;;;;;;;;8.75;8.50;;;;;20.98;72.03;101455.38;4965118;28;49581;-72
2022/10/27 17:47:35;;;;;;;;;9.25;8.25;;;;;21.00;71.94;101469.59;4972387;28;53184;-71
2022/10/27 17:50:00;;;;;;;;;6.75;6.75;;;;;21.19;71.87;101517.44;4972765;28;50357;-71
2022/10/27 17:52:30;;;;;;;;;8.75;8.75;;;;;21.22;72.01;101522.75;4966833;28;49492;-74
2022/10/27 17:54:56;;;;;;;;;10.00;10.00;;;;;21.02;72.14;101483.78;4950823;28;49755;-75
2022/10/27 17:57:21;;;;;;;;;12.00;10.25;;;;;21.23;72.15;101521.84;4952079;28;50076;-77
2022/10/27 17:59:46;;;;;;;;;10.25;8.25;;;;;21.08;72.06;101499.75;4960963;28;51088;-72
2022/10/27 18:02:12;;;;;;;;;11.25;8.50;;;;;20.92;71.98;101474.13;4965300;28;49853;-74
2022/10/27 18:04:41;;;;;;;;;8.75;8.75;;;;;21.01;72.15;101491.81;4966535;28;49817;-78
2022/10/27 18:07:07;;;;;;;;;9.00;8.00;;;;;21.17;72.66;101524.59;4952682;28;49843;-74
2022/10/27 18:09:32;;;;;;;;;9.25;7.25;;;;;20.97;72.30;101493.66;4965934;28;50171;-78
2022/10/27 18:11:57;;;;;;;;;11.75;10.00;;;;;21.12;72.75;101516.63;4964400;28;49725;-74
2022/10/27 18:14:23;;;;;;;;;10.75;7.25;;;;;20.94;72.69;101498.13;4964823;28;49775;-73
2022/10/27 18:16:48;;;;;;;;;8.50;8.50;;;;;21.08;72.61;101518.44;4968554;28;50063;-73
2022/10/27 18:19:15;;;;;;;;;8.00;5.00;;;;;20.93;72.69;101497.22;4965329;28;66092;-74
2022/10/27 18:21:43;;;;;;;;;12.00;11.00;;;;;21.06;72.86;101522.91;4962154;28;49894;-79
2022/10/27 18:24:10;;;;;;;;;9.00;8.50;;;;;21.05;73.19;101521.16;4952053;28;49939;-77
2022/10/27 18:26:37;;;;;;;;;11.00;11.00;;;;;20.99;73.56;101509.66;4953305;28;49911;-77
2022/10/27 18:29:04;;;;;;;;;9.00;8.25;;;;;20.91;73.75;101501.72;4960632;28;50606;-73
2022/10/27 18:31:36;;;;;;;;;12.50;12.25;;;;;21.00;73.67;101519.41;4971418;28;49706;-79
2022/10/27 18:34:07;;;;;;;;;7.75;6.75;;;;;20.75;73.28;101484.06;4954312;28;50090;-79
2022/10/27 18:36:33;;;;;;;;;10.75;9.25;;;;;20.95;73.91;101523.94;4971777;28;49913;-77
2022/10/27 18:39:00;;;;;;;;;11.00;10.75;;;;;20.70;74.01;101486.78;4952453;28;51386;-78
2022/10/27 18:41:28;;;;;;;;;11.75;11.75;;;;;20.71;73.94;101490.34;4971525;28;49990;-81
2022/10/27 18:43:54;;;;;;;;;9.00;8.25;;;;;20.65;74.45;101487.72;4971425;28;49797;-77
2022/10/27 18:46:21;;;;;;;;;13.75;11.50;;;;;20.88;74.52;101533.78;4953396;28;50016;-75